createdAt,value
2019-04-03T00:00:19.442Z,10.394287
2019-04-03T00:01:19.563Z,10.364075
2019-04-03T00:02:19.676Z,10.364075
2019-04-03T00:03:19.787Z,10.313721
2019-04-03T00:04:19.884Z,10.313721
2019-04-03T00:05:19.977Z,10.283508
2019-04-03T00:06:20.198Z,10.253296
2019-04-03T00:07:20.178Z,10.233154
2019-04-03T00:08:20.363Z,10.233154
2019-04-03T00:09:19.418Z,10.213013
2019-04-03T00:10:20.524Z,10.202942
2019-04-03T00:11:19.648Z,10.172729
2019-04-03T00:12:19.796Z,10.1828
2019-04-03T00:13:19.929Z,10.202942
2019-04-03T00:14:20.056Z,10.213013
2019-04-03T00:15:20.163Z,10.233154
2019-04-03T00:16:20.269Z,10.253296
2019-04-03T00:17:20.378Z,10.233154
2019-04-03T00:18:20.511Z,10.253296
2019-04-03T00:19:20.619Z,10.243225
2019-04-03T00:20:20.808Z,10.233154
2019-04-03T00:21:20.979Z,10.243225
2019-04-03T00:22:21.821Z,10.233154
2019-04-03T00:23:22.313Z,10.243225
2019-04-03T00:24:22.517Z,10.233154
2019-04-03T00:25:22.283Z,10.243225
2019-04-03T00:26:22.427Z,10.253296
2019-04-03T00:27:22.252Z,10.233154
2019-04-03T00:28:22.333Z,10.213013
2019-04-03T00:29:22.625Z,10.213013
2019-04-03T00:30:22.440Z,10.233154
2019-04-03T00:31:23.302Z,10.233154
2019-04-03T00:32:23.316Z,10.233154
2019-04-03T00:33:23.341Z,10.233154
2019-04-03T00:34:23.751Z,10.213013
2019-04-03T00:35:23.481Z,10.213013
2019-04-03T00:36:23.296Z,10.213013
2019-04-03T00:37:23.167Z,10.202942
2019-04-03T00:38:23.873Z,10.202942
2019-04-03T00:39:24.187Z,10.172729
2019-04-03T00:40:24.378Z,10.172729
2019-04-03T00:41:24.705Z,10.152588
2019-04-03T00:42:24.422Z,10.152588
2019-04-03T00:43:24.660Z,10.132446
2019-04-03T00:44:24.222Z,10.122375
2019-04-03T00:45:24.433Z,10.102234
2019-04-03T00:46:24.337Z,10.102234
2019-04-03T00:47:24.975Z,10.102234
2019-04-03T00:48:23.652Z,10.092163
2019-04-03T00:49:24.260Z,10.061951
2019-04-03T00:50:26.118Z,10.072021
2019-04-03T00:51:23.849Z,10.061951
2019-04-03T00:52:23.945Z,10.05188
2019-04-03T00:53:24.063Z,10.05188
2019-04-03T00:54:24.747Z,10.021667
2019-04-03T00:55:24.865Z,10.021667
2019-04-03T00:56:24.773Z,10.021667
2019-04-03T00:57:24.659Z,10.001526
2019-04-03T00:58:25.760Z,9.991455
2019-04-03T00:59:24.677Z,9.991455
2019-04-03T01:00:26.381Z,9.991455
2019-04-03T01:01:26.435Z,9.991455
2019-04-03T01:02:24.765Z,9.971313
2019-04-03T01:03:24.860Z,9.971313
2019-04-03T01:04:24.961Z,9.951172
2019-04-03T01:05:25.121Z,9.951172
2019-04-03T01:06:25.034Z,9.941101
2019-04-03T01:07:25.072Z,9.910889
2019-04-03T01:08:25.136Z,9.900818
2019-04-03T01:09:25.226Z,9.900818
2019-04-03T01:10:25.275Z,9.850464
2019-04-03T01:11:25.322Z,9.850464
2019-04-03T01:12:25.358Z,9.810181
2019-04-03T01:13:25.427Z,9.810181
2019-04-03T01:14:25.437Z,9.80011
2019-04-03T01:15:25.579Z,9.80011
2019-04-03T01:16:25.704Z,9.759827
2019-04-03T01:17:25.827Z,9.739685
2019-04-03T01:18:25.845Z,9.719543
2019-04-03T01:19:26.036Z,9.719543
2019-04-03T01:20:25.836Z,9.689331
2019-04-03T01:21:25.979Z,9.689331
2019-04-03T01:22:26.083Z,9.659119
2019-04-03T01:23:26.129Z,9.638977
2019-04-03T01:24:26.114Z,9.628906
2019-04-03T01:25:26.200Z,9.618835
2019-04-03T01:26:27.223Z,9.588623
2019-04-03T01:27:27.296Z,9.588623
2019-04-03T01:28:27.411Z,9.578552
2019-04-03T01:29:27.524Z,9.558411
2019-04-03T01:30:27.579Z,9.54834
2019-04-03T01:31:26.678Z,9.54834
2019-04-03T01:32:26.844Z,9.538269
2019-04-03T01:33:26.934Z,9.518127
2019-04-03T01:34:27.048Z,9.518127
2019-04-03T01:35:27.269Z,9.508057
2019-04-03T01:36:27.315Z,9.508057
2019-04-03T01:37:27.322Z,9.487915
2019-04-03T01:38:27.414Z,9.508057
2019-04-03T01:39:27.410Z,9.477844
2019-04-03T01:40:27.489Z,9.477844
2019-04-03T01:41:27.439Z,9.467773
2019-04-03T01:42:27.590Z,9.447632
2019-04-03T01:43:27.760Z,9.447632
2019-04-03T01:44:27.679Z,9.437561
2019-04-03T01:45:27.849Z,9.437561
2019-04-03T01:46:28.129Z,9.447632
2019-04-03T01:47:28.193Z,9.437561
2019-04-03T01:48:28.849Z,9.447632
2019-04-03T01:49:28.815Z,9.437561
2019-04-03T01:50:28.592Z,9.447632
2019-04-03T01:51:29.669Z,9.417419
2019-04-03T01:52:31.010Z,9.437561
2019-04-03T01:53:28.524Z,9.437561
2019-04-03T01:54:28.501Z,9.417419
2019-04-03T01:55:28.674Z,9.417419
2019-04-03T01:56:28.563Z,9.417419
2019-04-03T01:57:28.676Z,9.417419
2019-04-03T01:58:28.818Z,9.417419
2019-04-03T01:59:28.828Z,9.417419
2019-04-03T02:00:28.906Z,9.397278
2019-04-03T02:01:28.987Z,9.397278
2019-04-03T02:02:29.051Z,9.397278
2019-04-03T02:03:29.309Z,9.397278
2019-04-03T02:04:29.335Z,9.417419
2019-04-03T02:05:29.431Z,9.397278
2019-04-03T02:06:30.498Z,9.417419
2019-04-03T02:07:30.560Z,9.397278
2019-04-03T02:08:30.672Z,9.387207
2019-04-03T02:09:30.679Z,9.387207
2019-04-03T02:10:30.897Z,9.367065
2019-04-03T02:11:29.877Z,9.367065
2019-04-03T02:12:29.892Z,9.367065
2019-04-03T02:13:30.092Z,9.356995
2019-04-03T02:14:30.144Z,9.356995
2019-04-03T02:15:30.231Z,9.367065
2019-04-03T02:16:30.356Z,9.336853
2019-04-03T02:17:30.445Z,9.336853
2019-04-03T02:18:30.501Z,9.336853
2019-04-03T02:19:30.636Z,9.356995
2019-04-03T02:20:30.735Z,9.336853
2019-04-03T02:21:30.854Z,9.356995
2019-04-03T02:22:30.903Z,9.356995
2019-04-03T02:23:31.242Z,9.367065
2019-04-03T02:24:31.923Z,9.356995
2019-04-03T02:25:32.100Z,9.336853
2019-04-03T02:26:32.484Z,9.326782
2019-04-03T02:27:31.660Z,9.306641
2019-04-03T02:28:31.854Z,9.306641
2019-04-03T02:29:31.537Z,9.326782
2019-04-03T02:30:31.531Z,9.306641
2019-04-03T02:31:32.572Z,9.286499
2019-04-03T02:32:31.671Z,9.256287
2019-04-03T02:33:31.784Z,9.266357
2019-04-03T02:34:34.415Z,9.256287
2019-04-03T02:35:31.788Z,9.236145
2019-04-03T02:36:31.917Z,9.256287
2019-04-03T02:37:32.950Z,9.216003
2019-04-03T02:38:33.127Z,9.205933
2019-04-03T02:39:32.145Z,9.205933
2019-04-03T02:40:33.088Z,9.155579
2019-04-03T02:41:35.279Z,9.125366
2019-04-03T02:42:32.193Z,9.085083
2019-04-03T02:43:32.321Z,9.054871
2019-04-03T02:44:33.627Z,9.004517
2019-04-03T02:45:32.737Z,8.974304
2019-04-03T02:46:32.454Z,8.934021
2019-04-03T02:47:33.846Z,8.934021
2019-04-03T02:48:32.692Z,8.903809
2019-04-03T02:49:32.919Z,8.873596
2019-04-03T02:50:32.721Z,8.863525
2019-04-03T02:51:33.983Z,8.843384
2019-04-03T02:52:32.860Z,8.823242
2019-04-03T02:53:33.102Z,8.813171
2019-04-03T02:54:35.452Z,8.79303
2019-04-03T02:55:33.276Z,8.772888
2019-04-03T02:56:33.072Z,8.782959
2019-04-03T02:57:33.183Z,8.782959
2019-04-03T02:58:34.154Z,8.752747
2019-04-03T02:59:33.234Z,8.712463
2019-04-03T03:00:33.847Z,8.692322
2019-04-03T03:01:33.374Z,8.662109
2019-04-03T03:02:33.450Z,8.641968
2019-04-03T03:03:33.610Z,8.641968
2019-04-03T03:04:34.870Z,8.641968
2019-04-03T03:05:33.716Z,8.611755
2019-04-03T03:06:33.800Z,8.601685
2019-04-03T03:07:36.268Z,8.611755
2019-04-03T03:08:33.849Z,8.571472
2019-04-03T03:09:33.884Z,8.571472
2019-04-03T03:10:34.981Z,8.561401
2019-04-03T03:11:35.105Z,8.571472
2019-04-03T03:12:34.123Z,8.571472
2019-04-03T03:13:35.210Z,8.54126
2019-04-03T03:14:34.299Z,8.531189
2019-04-03T03:15:34.663Z,8.531189
2019-04-03T03:16:34.759Z,8.531189
2019-04-03T03:17:35.441Z,8.531189
2019-04-03T03:18:34.583Z,8.521118
2019-04-03T03:19:34.833Z,8.490906
2019-04-03T03:20:38.392Z,8.490906
2019-04-03T03:21:34.802Z,8.490906
2019-04-03T03:22:34.798Z,8.490906
2019-04-03T03:23:35.861Z,8.460693
2019-04-03T03:24:35.207Z,8.440552
2019-04-03T03:25:34.854Z,8.440552
2019-04-03T03:26:37.149Z,8.440552
2019-04-03T03:27:34.986Z,8.42041
2019-04-03T03:28:35.121Z,8.42041
2019-04-03T03:29:35.147Z,8.410339
2019-04-03T03:30:43.143Z,8.359985
2019-04-03T03:32:01.080Z,8.349915
2019-04-03T03:32:37.471Z,8.319702
2019-04-03T03:33:39.149Z,8.309631
2019-04-03T03:34:50.020Z,8.319702
2019-04-03T03:35:41.304Z,8.309631
2019-04-03T03:36:37.050Z,8.269348
2019-04-03T03:37:36.964Z,8.309631
2019-04-03T03:38:38.077Z,8.279419
2019-04-03T03:39:36.016Z,8.279419
2019-04-03T03:40:36.090Z,8.269348
2019-04-03T03:41:37.175Z,8.259277
2019-04-03T03:42:36.034Z,8.269348
2019-04-03T03:43:38.146Z,8.269348
2019-04-03T03:44:36.055Z,8.259277
2019-04-03T03:45:36.020Z,8.269348
2019-04-03T03:46:37.511Z,8.269348
2019-04-03T03:47:36.574Z,8.259277
2019-04-03T03:48:36.375Z,8.259277
2019-04-03T03:49:36.642Z,8.239136
2019-04-03T03:50:37.458Z,8.239136
2019-04-03T03:51:36.469Z,8.239136
2019-04-03T03:52:38.146Z,8.239136
2019-04-03T03:53:36.740Z,8.229065
2019-04-03T03:54:36.784Z,8.208923
2019-04-03T03:55:37.771Z,8.198853
2019-04-03T03:56:36.778Z,8.178711
2019-04-03T03:57:39.053Z,8.16864
2019-04-03T03:58:38.038Z,8.158569
2019-04-03T03:59:37.231Z,8.158569
2019-04-03T04:00:38.208Z,8.128357
2019-04-03T04:01:38.368Z,8.128357
2019-04-03T04:02:37.997Z,8.128357
2019-04-03T04:03:38.164Z,8.108215
2019-04-03T04:04:37.656Z,8.088074
2019-04-03T04:05:37.647Z,8.078003
2019-04-03T04:06:38.638Z,8.078003
2019-04-03T04:07:38.145Z,8.078003
2019-04-03T04:08:37.638Z,8.088074
2019-04-03T04:09:37.960Z,8.057861
2019-04-03T04:10:38.789Z,8.027649
2019-04-03T04:11:37.823Z,8.027649
2019-04-03T04:12:40.844Z,8.007507
2019-04-03T04:13:37.944Z,8.007507
2019-04-03T04:14:38.314Z,8.017578
2019-04-03T04:15:39.381Z,8.007507
2019-04-03T04:16:38.375Z,7.987366
2019-04-03T04:17:38.189Z,8.007507
2019-04-03T04:18:39.451Z,7.987366
2019-04-03T04:19:39.376Z,7.987366
2019-04-03T04:20:38.979Z,7.957153
2019-04-03T04:21:38.466Z,7.957153
2019-04-03T04:22:38.660Z,7.957153
2019-04-03T04:23:38.653Z,7.957153
2019-04-03T04:24:39.815Z,7.947083
2019-04-03T04:25:38.873Z,7.926941
2019-04-03T04:26:38.986Z,7.926941
2019-04-03T04:27:39.484Z,7.926941
2019-04-03T04:28:40.164Z,7.926941
2019-04-03T04:29:41.006Z,7.947083
2019-04-03T04:30:40.589Z,7.947083
2019-04-03T04:31:39.312Z,7.926941
2019-04-03T04:32:39.286Z,7.926941
2019-04-03T04:33:39.615Z,7.957153
2019-04-03T04:34:39.487Z,7.957153
2019-04-03T04:35:39.646Z,7.957153
2019-04-03T04:36:40.591Z,7.947083
2019-04-03T04:37:40.842Z,7.926941
2019-04-03T04:38:40.830Z,7.926941
2019-04-03T04:39:39.867Z,7.926941
2019-04-03T04:40:39.965Z,7.947083
2019-04-03T04:41:40.080Z,7.947083
2019-04-03T04:42:40.188Z,7.947083
2019-04-03T04:43:40.289Z,7.957153
2019-04-03T04:44:41.142Z,7.947083
2019-04-03T04:45:40.770Z,7.977295
2019-04-03T04:46:43.538Z,7.987366
2019-04-03T04:47:40.618Z,7.987366
2019-04-03T04:48:40.940Z,7.987366
2019-04-03T04:49:41.036Z,8.007507
2019-04-03T04:50:40.933Z,8.007507
2019-04-03T04:51:42.047Z,8.017578
2019-04-03T04:52:42.250Z,8.027649
2019-04-03T04:53:41.368Z,8.027649
2019-04-03T04:54:42.851Z,8.047791
2019-04-03T04:55:41.507Z,8.047791
2019-04-03T04:56:41.732Z,8.027649
2019-04-03T04:57:41.745Z,8.047791
2019-04-03T04:58:42.918Z,8.047791
2019-04-03T04:59:42.916Z,8.047791
2019-04-03T05:00:41.874Z,8.057861
2019-04-03T05:01:41.966Z,8.047791
2019-04-03T05:02:42.068Z,8.057861
2019-04-03T05:03:42.169Z,8.047791
2019-04-03T05:04:42.388Z,8.027649
2019-04-03T05:05:43.556Z,8.027649
2019-04-03T05:06:43.514Z,8.027649
2019-04-03T05:07:42.654Z,7.987366
2019-04-03T05:08:42.770Z,7.987366
2019-04-03T05:09:42.889Z,8.007507
2019-04-03T05:10:43.014Z,8.007507
2019-04-03T05:11:43.131Z,7.987366
2019-04-03T05:12:45.272Z,8.007507
2019-04-03T05:13:43.429Z,8.017578
2019-04-03T05:14:43.541Z,8.027649
2019-04-03T05:15:43.580Z,8.027649
2019-04-03T05:16:43.712Z,8.047791
2019-04-03T05:17:43.846Z,8.047791
2019-04-03T05:18:44.911Z,8.047791
2019-04-03T05:19:45.051Z,8.057861
2019-04-03T05:20:44.284Z,8.057861
2019-04-03T05:21:44.283Z,8.057861
2019-04-03T05:22:44.382Z,8.047791
2019-04-03T05:23:44.471Z,8.057861
2019-04-03T05:24:45.573Z,8.057861
2019-04-03T05:25:45.666Z,8.047791
2019-04-03T05:26:45.762Z,8.057861
2019-04-03T05:27:44.876Z,8.057861
2019-04-03T05:28:54.526Z,8.057861
2019-04-03T05:29:45.069Z,8.057861
2019-04-03T05:30:45.262Z,8.047791
2019-04-03T05:31:45.279Z,8.057861
2019-04-03T05:32:45.452Z,8.057861
2019-04-03T05:33:45.506Z,8.057861
2019-04-03T05:34:45.809Z,8.047791
2019-04-03T05:35:46.497Z,8.057861
2019-04-03T05:36:46.785Z,8.057861
2019-04-03T05:37:45.958Z,8.057861
2019-04-03T05:38:46.047Z,8.078003
2019-04-03T05:39:46.319Z,8.088074
2019-04-03T05:40:46.257Z,8.088074
2019-04-03T05:41:46.600Z,8.108215
2019-04-03T05:42:46.492Z,8.108215
2019-04-03T05:43:47.639Z,8.108215
2019-04-03T05:44:47.733Z,8.088074
2019-04-03T05:45:46.688Z,8.088074
2019-04-03T05:46:46.793Z,8.088074
2019-04-03T05:47:46.894Z,8.057861
2019-04-03T05:48:47.969Z,8.057861
2019-04-03T05:49:47.539Z,8.027649
2019-04-03T05:50:47.375Z,8.017578
2019-04-03T05:51:47.360Z,8.007507
2019-04-03T05:52:47.458Z,8.007507
2019-04-03T05:53:47.839Z,7.987366
2019-04-03T05:54:47.777Z,8.007507
2019-04-03T05:55:47.751Z,8.007507
2019-04-03T05:56:47.886Z,7.987366
2019-04-03T05:57:48.020Z,8.007507
2019-04-03T05:58:55.144Z,8.027649
2019-04-03T05:59:59.406Z,8.027649
2019-04-03T06:00:49.230Z,8.047791
2019-04-03T06:01:49.239Z,8.057861
2019-04-03T06:02:49.534Z,8.078003
2019-04-03T06:03:48.435Z,8.088074
2019-04-03T06:04:48.492Z,8.057861
2019-04-03T06:05:48.651Z,8.047791
2019-04-03T06:06:48.796Z,8.007507
2019-04-03T06:07:49.333Z,7.987366
2019-04-03T06:08:50.613Z,7.957153
2019-04-03T06:09:48.871Z,7.896729
2019-04-03T06:10:48.832Z,7.896729
2019-04-03T06:11:51.890Z,7.896729
2019-04-03T06:12:48.909Z,7.896729
2019-04-03T06:13:48.934Z,7.906799
2019-04-03T06:14:50.177Z,7.926941
2019-04-03T06:15:48.915Z,7.947083
2019-04-03T06:16:49.022Z,7.957153
2019-04-03T06:17:50.640Z,7.977295
2019-04-03T06:18:49.255Z,7.987366
2019-04-03T06:19:49.418Z,7.977295
2019-04-03T06:20:49.543Z,7.977295
2019-04-03T06:21:49.582Z,7.957153
2019-04-03T06:22:49.824Z,7.957153
2019-04-03T06:23:50.847Z,7.977295
2019-04-03T06:24:49.731Z,7.987366
2019-04-03T06:25:49.837Z,8.017578
2019-04-03T06:26:49.943Z,8.007507
2019-04-03T06:27:50.087Z,7.977295
2019-04-03T06:28:50.206Z,7.977295
2019-04-03T06:29:53.428Z,7.977295
2019-04-03T06:30:50.596Z,7.987366
2019-04-03T06:31:50.409Z,7.977295
2019-04-03T06:32:54.465Z,7.977295
2019-04-03T06:33:51.294Z,7.957153
2019-04-03T06:34:50.945Z,7.977295
2019-04-03T06:35:50.914Z,7.957153
2019-04-03T06:36:51.135Z,7.977295
2019-04-03T06:37:52.813Z,7.987366
2019-04-03T06:38:51.151Z,8.007507
2019-04-03T06:39:51.269Z,8.007507
2019-04-03T06:40:51.283Z,8.007507
2019-04-03T06:41:51.414Z,7.987366
2019-04-03T06:42:51.458Z,8.007507
2019-04-03T06:43:54.021Z,8.007507
2019-04-03T06:44:53.563Z,8.017578
2019-04-03T06:45:52.152Z,8.017578
2019-04-03T06:46:53.986Z,8.017578
2019-04-03T06:47:51.688Z,8.017578
2019-04-03T06:48:55.003Z,8.047791
2019-04-03T06:49:52.775Z,8.027649
2019-04-03T06:50:51.832Z,8.017578
2019-04-03T06:51:52.074Z,8.007507
2019-04-03T06:52:52.953Z,8.007507
2019-04-03T06:53:51.985Z,8.027649
2019-04-03T06:54:53.032Z,8.027649
2019-04-03T06:55:52.209Z,8.027649
2019-04-03T06:56:53.169Z,8.027649
2019-04-03T06:57:52.161Z,8.057861
2019-04-03T06:58:52.200Z,8.057861
2019-04-03T06:59:52.272Z,8.057861
2019-04-03T07:00:54.336Z,8.057861
2019-04-03T07:01:53.283Z,8.047791
2019-04-03T07:02:52.428Z,8.047791
2019-04-03T07:03:52.450Z,8.057861
2019-04-03T07:04:53.536Z,8.078003
2019-04-03T07:05:52.571Z,8.078003
2019-04-03T07:06:55.338Z,8.078003
2019-04-03T07:07:52.991Z,8.078003
2019-04-03T07:08:53.952Z,8.078003
2019-04-03T07:09:53.022Z,8.078003
2019-04-03T07:10:55.512Z,8.078003
2019-04-03T07:11:53.157Z,8.057861
2019-04-03T07:12:53.280Z,8.047791
2019-04-03T07:13:54.399Z,8.047791
2019-04-03T07:14:53.503Z,8.027649
2019-04-03T07:15:55.723Z,8.027649
2019-04-03T07:16:53.619Z,8.017578
2019-04-03T07:17:53.701Z,8.017578
2019-04-03T07:18:53.840Z,8.007507
2019-04-03T07:19:54.912Z,8.017578
2019-04-03T07:20:55.064Z,8.017578
2019-04-03T07:21:55.057Z,8.017578
2019-04-03T07:22:54.149Z,8.027649
2019-04-03T07:23:54.048Z,8.047791
2019-04-03T07:24:54.121Z,8.047791
2019-04-03T07:25:54.319Z,8.047791
2019-04-03T07:26:54.274Z,8.047791
2019-04-03T07:27:54.266Z,8.047791
2019-04-03T07:28:55.343Z,8.027649
2019-04-03T07:29:54.412Z,8.027649
2019-04-03T07:30:54.531Z,8.027649
2019-04-03T07:31:55.305Z,8.027649
2019-04-03T07:32:56.544Z,8.047791
2019-04-03T07:33:57.331Z,8.078003
2019-04-03T07:34:54.627Z,8.078003
2019-04-03T07:35:55.810Z,8.088074
2019-04-03T07:36:55.674Z,8.088074
2019-04-03T07:37:54.719Z,8.108215
2019-04-03T07:38:57.579Z,8.138428
2019-04-03T07:39:58.270Z,8.128357
2019-04-03T07:40:55.031Z,8.158569
2019-04-03T07:41:54.946Z,8.138428
2019-04-03T07:42:55.970Z,8.128357
2019-04-03T07:43:55.020Z,8.138428
2019-04-03T07:44:55.069Z,8.128357
2019-04-03T07:45:55.141Z,8.138428
2019-04-03T07:46:55.675Z,8.158569
2019-04-03T07:47:55.214Z,8.198853
2019-04-03T07:48:55.255Z,8.208923
2019-04-03T07:49:56.466Z,8.239136
2019-04-03T07:50:56.351Z,8.269348
2019-04-03T07:51:55.396Z,8.279419
2019-04-03T07:52:55.443Z,8.309631
2019-04-03T07:53:55.509Z,8.339844
2019-04-03T07:54:56.889Z,8.319702
2019-04-03T07:55:55.966Z,8.339844
2019-04-03T07:56:57.300Z,8.319702
2019-04-03T07:57:57.679Z,8.309631
2019-04-03T07:58:55.899Z,8.319702
2019-04-03T07:59:55.846Z,8.319702
2019-04-03T08:00:55.893Z,8.309631
2019-04-03T08:01:57.327Z,8.319702
2019-04-03T08:02:56.992Z,8.319702
2019-04-03T08:03:56.059Z,8.319702
2019-04-03T08:04:59.338Z,8.319702
2019-04-03T08:05:56.833Z,8.319702
2019-04-03T08:06:56.223Z,8.319702
2019-04-03T08:07:56.532Z,8.319702
2019-04-03T08:09:07.174Z,8.309631
2019-04-03T08:09:58.579Z,8.279419
2019-04-03T08:10:56.508Z,8.279419
2019-04-03T08:11:56.621Z,8.239136
2019-04-03T08:12:59.185Z,8.198853
2019-04-03T08:13:56.437Z,8.138428
2019-04-03T08:14:57.746Z,8.078003
2019-04-03T08:15:57.527Z,8.057861
2019-04-03T08:16:57.213Z,8.057861
2019-04-03T08:17:57.463Z,8.078003
2019-04-03T08:18:57.019Z,8.108215
2019-04-03T08:19:56.848Z,8.138428
2019-04-03T08:20:59.863Z,8.16864
2019-04-03T08:21:56.958Z,8.229065
2019-04-03T08:22:56.917Z,8.239136
2019-04-03T08:23:57.088Z,8.208923
2019-04-03T08:24:56.997Z,8.16864
2019-04-03T08:25:58.024Z,8.178711
2019-04-03T08:26:58.047Z,8.198853
2019-04-03T08:27:57.140Z,8.229065
2019-04-03T08:28:57.305Z,8.269348
2019-04-03T08:29:57.241Z,8.259277
2019-04-03T08:30:57.290Z,8.229065
2019-04-03T08:31:58.368Z,8.229065
2019-04-03T08:32:57.464Z,8.259277
2019-04-03T08:33:59.482Z,8.309631
2019-04-03T08:34:58.755Z,8.349915
2019-04-03T08:35:58.518Z,8.359985
2019-04-03T08:37:01.316Z,8.339844
2019-04-03T08:37:58.532Z,8.319702
2019-04-03T08:38:58.871Z,8.339844
2019-04-03T08:39:58.863Z,8.309631
2019-04-03T08:40:57.683Z,8.279419
2019-04-03T08:41:57.709Z,8.269348
2019-04-03T08:43:00.320Z,8.239136
2019-04-03T08:43:57.784Z,8.239136
2019-04-03T08:44:58.029Z,8.229065
2019-04-03T08:45:57.862Z,8.208923
2019-04-03T08:46:57.890Z,8.229065
2019-04-03T08:47:58.924Z,8.229065
2019-04-03T08:48:58.216Z,8.178711
2019-04-03T08:49:59.017Z,8.138428
2019-04-03T08:50:58.900Z,8.108215
2019-04-03T08:51:58.249Z,8.088074
2019-04-03T08:52:59.181Z,8.057861
2019-04-03T08:53:58.254Z,8.047791
2019-04-03T08:54:58.201Z,8.007507
2019-04-03T08:55:59.244Z,7.987366
2019-04-03T08:56:58.302Z,7.846375
2019-04-03T08:57:58.572Z,7.594604
2019-04-03T08:58:58.530Z,7.53418
2019-04-03T09:00:00.255Z,7.503967
2019-04-03T09:00:58.540Z,7.443542
2019-04-03T09:01:58.552Z,7.463684
2019-04-03T09:02:59.562Z,7.473755
2019-04-03T09:03:59.583Z,7.554321
2019-04-03T09:04:58.843Z,7.624817
2019-04-03T09:05:59.743Z,7.695312
2019-04-03T09:06:58.722Z,7.796021
2019-04-03T09:07:58.842Z,7.866516
2019-04-03T09:08:59.265Z,7.957153
2019-04-03T09:10:00.850Z,8.057861
2019-04-03T09:10:58.994Z,8.158569
2019-04-03T09:11:59.046Z,8.208923
2019-04-03T09:12:59.087Z,8.259277
2019-04-03T09:14:00.096Z,8.319702
2019-04-03T09:14:59.209Z,8.359985
2019-04-03T09:16:00.291Z,8.359985
2019-04-03T09:17:00.558Z,8.380127
2019-04-03T09:17:59.430Z,8.380127
2019-04-03T09:18:59.353Z,8.359985
2019-04-03T09:19:59.447Z,8.390198
2019-04-03T09:21:00.434Z,8.410339
2019-04-03T09:22:00.462Z,8.450623
2019-04-03T09:22:59.502Z,8.450623
2019-04-03T09:23:59.564Z,8.521118
2019-04-03T09:25:00.559Z,8.521118
2019-04-03T09:26:02.502Z,8.490906
2019-04-03T09:26:59.707Z,8.450623
2019-04-03T09:27:59.736Z,8.490906
2019-04-03T09:28:59.763Z,8.54126
2019-04-03T09:30:00.813Z,8.591614
2019-04-03T09:31:00.859Z,8.611755
2019-04-03T09:31:59.895Z,8.682251
2019-04-03T09:33:00.497Z,8.722534
2019-04-03T09:33:59.975Z,8.772888
2019-04-03T09:35:01.264Z,8.79303
2019-04-03T09:36:00.099Z,8.79303
2019-04-03T09:37:00.164Z,8.813171
2019-04-03T09:38:00.249Z,8.873596
2019-04-03T09:39:00.356Z,8.954163
2019-04-03T09:40:01.363Z,9.054871
2019-04-03T09:41:01.383Z,9.17572
2019-04-03T09:42:00.480Z,9.256287
2019-04-03T09:43:00.522Z,9.286499
2019-04-03T09:44:00.667Z,9.336853
2019-04-03T09:45:00.744Z,9.417419
2019-04-03T09:46:01.033Z,9.487915
2019-04-03T09:47:02.869Z,9.538269
2019-04-03T09:48:00.889Z,9.638977
2019-04-03T09:49:00.912Z,9.689331
2019-04-03T09:50:00.970Z,9.769897
2019-04-03T09:51:02.000Z,9.850464
2019-04-03T09:52:02.024Z,9.880676
2019-04-03T09:53:02.421Z,9.941101
2019-04-03T09:54:01.156Z,9.951172
2019-04-03T09:55:01.208Z,9.900818
2019-04-03T09:56:01.383Z,9.659119
2019-04-03T09:57:04.549Z,9.487915
2019-04-03T09:58:03.169Z,9.518127
2019-04-03T09:59:01.463Z,9.387207
2019-04-03T10:00:02.419Z,9.29657
2019-04-03T10:01:01.709Z,9.387207
2019-04-03T10:02:02.488Z,9.437561
2019-04-03T10:03:01.821Z,9.54834
2019-04-03T10:04:01.571Z,9.628906
2019-04-03T10:05:01.978Z,9.659119
2019-04-03T10:06:01.806Z,9.659119
2019-04-03T10:07:02.665Z,9.618835
2019-04-03T10:08:01.903Z,9.578552
2019-04-03T10:09:02.009Z,9.628906
2019-04-03T10:10:02.088Z,9.588623
2019-04-03T10:11:03.163Z,9.508057
2019-04-03T10:12:03.228Z,9.477844
2019-04-03T10:13:02.271Z,9.447632
2019-04-03T10:14:02.375Z,9.356995
2019-04-03T10:15:02.702Z,9.29657
2019-04-03T10:16:04.334Z,9.29657
2019-04-03T10:17:03.823Z,9.326782
2019-04-03T10:18:02.608Z,9.216003
2019-04-03T10:19:02.714Z,9.125366
2019-04-03T10:20:02.727Z,9.125366
2019-04-03T10:21:03.790Z,9.155579
2019-04-03T10:22:03.991Z,9.185791
2019-04-03T10:23:03.111Z,9.125366
2019-04-03T10:24:03.105Z,9.024658
2019-04-03T10:25:05.382Z,8.974304
2019-04-03T10:26:03.312Z,9.024658
2019-04-03T10:27:03.120Z,9.075012
2019-04-03T10:28:03.323Z,9.17572
2019-04-03T10:29:03.234Z,9.266357
2019-04-03T10:30:04.298Z,9.306641
2019-04-03T10:31:03.667Z,9.336853
2019-04-03T10:32:03.673Z,9.326782
2019-04-03T10:33:03.529Z,9.356995
2019-04-03T10:34:04.144Z,9.306641
2019-04-03T10:35:05.071Z,9.326782
2019-04-03T10:36:03.694Z,9.336853
2019-04-03T10:37:04.896Z,9.286499
2019-04-03T10:38:03.744Z,8.964233
2019-04-03T10:39:04.781Z,8.893738
2019-04-03T10:40:04.816Z,8.903809
2019-04-03T10:41:04.031Z,8.934021
2019-04-03T10:42:03.971Z,9.024658
2019-04-03T10:43:05.481Z,9.115295
2019-04-03T10:44:04.065Z,9.145508
2019-04-03T10:45:04.138Z,9.205933
2019-04-03T10:46:04.241Z,9.17572
2019-04-03T10:47:05.289Z,9.216003
2019-04-03T10:48:05.783Z,9.256287
2019-04-03T10:49:04.363Z,9.266357
2019-04-03T10:50:05.285Z,9.216003
2019-04-03T10:51:04.490Z,9.216003
2019-04-03T10:52:04.517Z,9.17572
2019-04-03T10:53:04.556Z,9.145508
2019-04-03T10:54:05.594Z,9.034729
2019-04-03T10:55:04.820Z,9.054871
2019-04-03T10:56:04.734Z,9.085083
2019-04-03T10:57:04.785Z,9.155579
2019-04-03T10:58:07.090Z,9.256287
2019-04-03T10:59:11.307Z,9.266357
2019-04-03T11:00:05.998Z,9.286499
2019-04-03T11:01:04.996Z,9.29657
2019-04-03T11:02:05.191Z,9.286499
2019-04-03T11:03:05.254Z,9.185791
2019-04-03T11:04:05.419Z,9.236145
2019-04-03T11:05:05.205Z,9.326782
2019-04-03T11:06:05.290Z,9.417419
2019-04-03T11:07:05.335Z,9.417419
2019-04-03T11:08:05.406Z,9.397278
2019-04-03T11:09:05.487Z,9.387207
2019-04-03T11:10:06.597Z,9.447632
2019-04-03T11:11:05.817Z,9.538269
2019-04-03T11:12:05.878Z,9.518127
2019-04-03T11:13:05.657Z,9.54834
2019-04-03T11:14:07.461Z,9.618835
2019-04-03T11:15:05.890Z,9.659119
2019-04-03T11:16:06.091Z,9.719543
2019-04-03T11:17:05.955Z,9.638977
2019-04-03T11:18:05.949Z,9.618835
2019-04-03T11:19:07.434Z,9.518127
2019-04-03T11:20:06.980Z,9.487915
2019-04-03T11:21:06.035Z,9.487915
2019-04-03T11:22:06.160Z,9.558411
2019-04-03T11:23:07.814Z,9.628906
2019-04-03T11:24:07.390Z,9.538269
2019-04-03T11:25:06.492Z,9.477844
2019-04-03T11:26:06.380Z,9.417419
2019-04-03T11:27:07.386Z,9.437561
2019-04-03T11:28:07.427Z,9.467773
2019-04-03T11:29:08.246Z,9.185791
2019-04-03T11:30:06.565Z,9.17572
2019-04-03T11:31:07.563Z,9.266357
2019-04-03T11:32:09.139Z,9.367065
2019-04-03T11:33:07.620Z,9.417419
2019-04-03T11:34:07.102Z,9.387207
2019-04-03T11:35:06.707Z,9.467773
2019-04-03T11:36:07.793Z,9.558411
2019-04-03T11:37:06.837Z,9.669189
2019-04-03T11:38:13.656Z,9.578552
2019-04-03T11:39:13.355Z,9.578552
2019-04-03T11:40:07.342Z,9.628906
2019-04-03T11:41:13.646Z,9.638977
2019-04-03T11:42:08.095Z,9.719543
2019-04-03T11:43:08.103Z,9.80011
2019-04-03T11:44:07.189Z,9.870605